sensor_id;sensor_type;location;lat;lon;timestamp;P1;durP1;ratioP1;P2;durP2;ratioP2
22164;SDS011;11248;52.512;13.520;2023-06-26T00:01:16;8.35;;;6.47;;
22164;SDS011;11248;52.512;13.520;2023-06-26T00:03:46;8.85;;;6.70;;
22164;SDS011;11248;52.512;13.520;2023-06-26T00:06:12;8.95;;;6.35;;
22164;SDS011;11248;52.512;13.520;2023-06-26T00:08:37;8.07;;;6.80;;
22164;SDS011;11248;52.512;13.520;2023-06-26T00:11:03;9.15;;;6.93;;
22164;SDS011;11248;52.512;13.520;2023-06-26T00:13:29;7.03;;;6.10;;
22164;SDS011;11248;52.512;13.520;2023-06-26T00:15:55;8.75;;;6.55;;
22164;SDS011;11248;52.512;13.520;2023-06-26T00:18:21;9.48;;;7.15;;
22164;SDS011;11248;52.512;13.520;2023-06-26T00:20:48;8.38;;;6.93;;
22164;SDS011;11248;52.512;13.520;2023-06-26T00:23:15;10.45;;;7.10;;
22164;SDS011;11248;52.512;13.520;2023-06-26T00:25:41;8.45;;;6.97;;
22164;SDS011;11248;52.512;13.520;2023-06-26T00:28:07;9.07;;;6.68;;
22164;SDS011;11248;52.512;13.520;2023-06-26T00:30:33;10.30;;;7.32;;
22164;SDS011;11248;52.512;13.520;2023-06-26T00:32:59;9.85;;;7.57;;
22164;SDS011;11248;52.512;13.520;2023-06-26T00:35:25;11.15;;;7.13;;
22164;SDS011;11248;52.512;13.520;2023-06-26T00:37:51;8.60;;;6.82;;
22164;SDS011;11248;52.512;13.520;2023-06-26T00:40:17;8.35;;;6.68;;
22164;SDS011;11248;52.512;13.520;2023-06-26T00:42:43;8.35;;;6.97;;
22164;SDS011;11248;52.512;13.520;2023-06-26T00:45:09;8.70;;;7.15;;
22164;SDS011;11248;52.512;13.520;2023-06-26T00:47:35;9.90;;;6.70;;
22164;SDS011;11248;52.512;13.520;2023-06-26T00:50:01;9.30;;;6.97;;
22164;SDS011;11248;52.512;13.520;2023-06-26T00:52:27;9.95;;;7.20;;
22164;SDS011;11248;52.512;13.520;2023-06-26T00:54:53;9.43;;;7.07;;
22164;SDS011;11248;52.512;13.520;2023-06-26T00:57:19;8.93;;;7.25;;
22164;SDS011;11248;52.512;13.520;2023-06-26T00:59:45;9.40;;;6.95;;
22164;SDS011;11248;52.512;13.520;2023-06-26T01:02:11;8.50;;;6.40;;
22164;SDS011;11248;52.512;13.520;2023-06-26T01:04:37;8.52;;;7.07;;
22164;SDS011;11248;52.512;13.520;2023-06-26T01:07:05;9.55;;;6.70;;
22164;SDS011;11248;52.512;13.520;2023-06-26T01:09:33;9.82;;;7.45;;
22164;SDS011;11248;52.512;13.520;2023-06-26T01:11:59;12.77;;;7.35;;
22164;SDS011;11248;52.512;13.520;2023-06-26T01:14:25;9.35;;;7.15;;
22164;SDS011;11248;52.512;13.520;2023-06-26T01:16:51;9.30;;;7.57;;
22164;SDS011;11248;52.512;13.520;2023-06-26T01:19:23;10.05;;;7.15;;
22164;SDS011;11248;52.512;13.520;2023-06-26T01:22:09;9.27;;;6.95;;
22164;SDS011;11248;52.512;13.520;2023-06-26T01:24:41;8.85;;;7.22;;
22164;SDS011;11248;52.512;13.520;2023-06-26T01:27:08;8.35;;;7.10;;
22164;SDS011;11248;52.512;13.520;2023-06-26T01:29:34;11.13;;;7.40;;
22164;SDS011;11248;52.512;13.520;2023-06-26T01:32:00;9.55;;;7.50;;
22164;SDS011;11248;52.512;13.520;2023-06-26T01:34:26;8.90;;;7.30;;
22164;SDS011;11248;52.512;13.520;2023-06-26T01:36:52;11.18;;;7.43;;
22164;SDS011;11248;52.512;13.520;2023-06-26T01:39:19;7.82;;;6.53;;
22164;SDS011;11248;52.512;13.520;2023-06-26T01:41:45;9.48;;;6.97;;
22164;SDS011;11248;52.512;13.520;2023-06-26T01:44:13;9.32;;;7.15;;
22164;SDS011;11248;52.512;13.520;2023-06-26T01:46:51;8.52;;;7.53;;
22164;SDS011;11248;52.512;13.520;2023-06-26T01:51:55;8.38;;;6.82;;
22164;SDS011;11248;52.512;13.520;2023-06-26T01:54:24;8.98;;;7.45;;
22164;SDS011;11248;52.512;13.520;2023-06-26T01:56:52;10.40;;;8.27;;
22164;SDS011;11248;52.512;13.520;2023-06-26T01:59:20;9.93;;;8.07;;
22164;SDS011;11248;52.512;13.520;2023-06-26T02:01:46;9.80;;;7.40;;
22164;SDS011;11248;52.512;13.520;2023-06-26T02:04:13;8.35;;;7.15;;
22164;SDS011;11248;52.512;13.520;2023-06-26T02:06:39;9.55;;;7.53;;
22164;SDS011;11248;52.512;13.520;2023-06-26T02:09:05;9.82;;;7.57;;
22164;SDS011;11248;52.512;13.520;2023-06-26T02:11:30;10.23;;;7.78;;
22164;SDS011;11248;52.512;13.520;2023-06-26T02:13:56;10.70;;;7.68;;
22164;SDS011;11248;52.512;13.520;2023-06-26T02:16:22;10.30;;;8.20;;
22164;SDS011;11248;52.512;13.520;2023-06-26T02:18:48;10.55;;;7.97;;
22164;SDS011;11248;52.512;13.520;2023-06-26T02:21:14;10.05;;;7.55;;
22164;SDS011;11248;52.512;13.520;2023-06-26T02:23:40;8.23;;;7.32;;
22164;SDS011;11248;52.512;13.520;2023-06-26T02:26:06;9.77;;;7.63;;
22164;SDS011;11248;52.512;13.520;2023-06-26T02:28:32;10.50;;;8.07;;
22164;SDS011;11248;52.512;13.520;2023-06-26T02:30:59;12.10;;;8.52;;
22164;SDS011;11248;52.512;13.520;2023-06-26T02:33:25;9.93;;;7.85;;
22164;SDS011;11248;52.512;13.520;2023-06-26T02:35:51;9.30;;;7.82;;
22164;SDS011;11248;52.512;13.520;2023-06-26T02:38:17;10.00;;;8.30;;
22164;SDS011;11248;52.512;13.520;2023-06-26T02:40:43;11.70;;;8.30;;
22164;SDS011;11248;52.512;13.520;2023-06-26T02:43:09;10.77;;;8.07;;
22164;SDS011;11248;52.512;13.520;2023-06-26T02:45:35;11.23;;;8.10;;
22164;SDS011;11248;52.512;13.520;2023-06-26T02:48:01;9.90;;;7.85;;
22164;SDS011;11248;52.512;13.520;2023-06-26T02:50:26;11.65;;;8.73;;
22164;SDS011;11248;52.512;13.520;2023-06-26T02:52:52;9.65;;;8.18;;
22164;SDS011;11248;52.512;13.520;2023-06-26T02:55:18;9.70;;;8.25;;
22164;SDS011;11248;52.512;13.520;2023-06-26T02:57:45;9.52;;;8.07;;
22164;SDS011;11248;52.512;13.520;2023-06-26T03:00:12;9.48;;;7.80;;
22164;SDS011;11248;52.512;13.520;2023-06-26T03:02:38;10.90;;;8.43;;
22164;SDS011;11248;52.512;13.520;2023-06-26T03:05:04;10.50;;;8.57;;
22164;SDS011;11248;52.512;13.520;2023-06-26T03:07:30;12.80;;;8.70;;
22164;SDS011;11248;52.512;13.520;2023-06-26T03:09:56;12.52;;;7.70;;
22164;SDS011;11248;52.512;13.520;2023-06-26T03:12:22;9.38;;;7.72;;
22164;SDS011;11248;52.512;13.520;2023-06-26T03:14:50;9.90;;;8.02;;
22164;SDS011;11248;52.512;13.520;2023-06-26T03:17:16;10.18;;;8.13;;
22164;SDS011;11248;52.512;13.520;2023-06-26T03:19:42;12.57;;;9.27;;
22164;SDS011;11248;52.512;13.520;2023-06-26T03:22:08;9.93;;;8.32;;
22164;SDS011;11248;52.512;13.520;2023-06-26T03:24:34;11.65;;;8.93;;
22164;SDS011;11248;52.512;13.520;2023-06-26T03:27:00;9.85;;;8.05;;
22164;SDS011;11248;52.512;13.520;2023-06-26T03:29:26;10.88;;;8.48;;
22164;SDS011;11248;52.512;13.520;2023-06-26T03:31:52;10.80;;;8.90;;
22164;SDS011;11248;52.512;13.520;2023-06-26T03:34:18;10.27;;;8.80;;
22164;SDS011;11248;52.512;13.520;2023-06-26T03:36:44;10.68;;;9.02;;
22164;SDS011;11248;52.512;13.520;2023-06-26T03:39:10;11.68;;;9.35;;
22164;SDS011;11248;52.512;13.520;2023-06-26T03:41:36;11.18;;;8.90;;
22164;SDS011;11248;52.512;13.520;2023-06-26T03:44:02;9.95;;;8.35;;
22164;SDS011;11248;52.512;13.520;2023-06-26T03:46:28;11.73;;;9.45;;
22164;SDS011;11248;52.512;13.520;2023-06-26T03:48:54;10.13;;;8.57;;
22164;SDS011;11248;52.512;13.520;2023-06-26T03:51:20;11.50;;;9.50;;
22164;SDS011;11248;52.512;13.520;2023-06-26T03:53:46;11.75;;;9.63;;
22164;SDS011;11248;52.512;13.520;2023-06-26T03:56:12;10.63;;;8.57;;
22164;SDS011;11248;52.512;13.520;2023-06-26T03:58:39;11.20;;;9.05;;
22164;SDS011;11248;52.512;13.520;2023-06-26T04:01:05;12.10;;;8.52;;
22164;SDS011;11248;52.512;13.520;2023-06-26T04:03:30;9.80;;;8.48;;
22164;SDS011;11248;52.512;13.520;2023-06-26T04:05:56;10.68;;;8.88;;
22164;SDS011;11248;52.512;13.520;2023-06-26T04:08:23;10.68;;;8.73;;
22164;SDS011;11248;52.512;13.520;2023-06-26T04:10:51;12.57;;;8.85;;
22164;SDS011;11248;52.512;13.520;2023-06-26T04:13:17;11.68;;;9.32;;
22164;SDS011;11248;52.512;13.520;2023-06-26T04:15:43;10.38;;;8.60;;
22164;SDS011;11248;52.512;13.520;2023-06-26T04:18:09;9.35;;;7.68;;
22164;SDS011;11248;52.512;13.520;2023-06-26T04:20:39;10.45;;;8.75;;
22164;SDS011;11248;52.512;13.520;2023-06-26T04:23:05;10.45;;;8.77;;
22164;SDS011;11248;52.512;13.520;2023-06-26T04:25:31;9.75;;;8.30;;
22164;SDS011;11248;52.512;13.520;2023-06-26T04:27:57;13.93;;;9.88;;
22164;SDS011;11248;52.512;13.520;2023-06-26T04:30:22;14.00;;;10.77;;
22164;SDS011;11248;52.512;13.520;2023-06-26T04:32:48;14.32;;;10.43;;
22164;SDS011;11248;52.512;13.520;2023-06-26T04:35:14;12.63;;;10.52;;
22164;SDS011;11248;52.512;13.520;2023-06-26T04:37:40;12.13;;;9.75;;
22164;SDS011;11248;52.512;13.520;2023-06-26T04:40:06;14.15;;;9.68;;
22164;SDS011;11248;52.512;13.520;2023-06-26T04:42:34;11.60;;;9.68;;
22164;SDS011;11248;52.512;13.520;2023-06-26T04:45:00;12.15;;;9.88;;
22164;SDS011;11248;52.512;13.520;2023-06-26T04:47:27;13.52;;;9.80;;
22164;SDS011;11248;52.512;13.520;2023-06-26T04:49:53;10.95;;;9.30;;
22164;SDS011;11248;52.512;13.520;2023-06-26T04:52:20;12.48;;;9.63;;
22164;SDS011;11248;52.512;13.520;2023-06-26T04:54:45;11.30;;;9.55;;
22164;SDS011;11248;52.512;13.520;2023-06-26T04:57:11;12.10;;;9.30;;
22164;SDS011;11248;52.512;13.520;2023-06-26T04:59:38;9.55;;;8.18;;
22164;SDS011;11248;52.512;13.520;2023-06-26T05:02:04;10.43;;;8.57;;
22164;SDS011;11248;52.512;13.520;2023-06-26T05:04:30;10.27;;;8.57;;
22164;SDS011;11248;52.512;13.520;2023-06-26T05:06:56;10.40;;;9.00;;
22164;SDS011;11248;52.512;13.520;2023-06-26T05:09:22;10.05;;;8.95;;
22164;SDS011;11248;52.512;13.520;2023-06-26T05:11:48;9.07;;;7.97;;
22164;SDS011;11248;52.512;13.520;2023-06-26T05:14:14;9.82;;;8.35;;
22164;SDS011;11248;52.512;13.520;2023-06-26T05:16:40;11.68;;;10.13;;
22164;SDS011;11248;52.512;13.520;2023-06-26T05:19:05;12.00;;;9.38;;
22164;SDS011;11248;52.512;13.520;2023-06-26T05:21:31;9.55;;;7.60;;
22164;SDS011;11248;52.512;13.520;2023-06-26T05:23:57;10.25;;;8.23;;
22164;SDS011;11248;52.512;13.520;2023-06-26T05:26:24;11.25;;;8.77;;
22164;SDS011;11248;52.512;13.520;2023-06-26T05:28:52;9.82;;;8.43;;
22164;SDS011;11248;52.512;13.520;2023-06-26T05:31:18;9.15;;;7.45;;
22164;SDS011;11248;52.512;13.520;2023-06-26T05:33:44;8.63;;;7.28;;
22164;SDS011;11248;52.512;13.520;2023-06-26T05:36:10;8.65;;;7.35;;
22164;SDS011;11248;52.512;13.520;2023-06-26T05:38:38;8.52;;;7.63;;
22164;SDS011;11248;52.512;13.520;2023-06-26T05:41:04;9.57;;;7.88;;
22164;SDS011;11248;52.512;13.520;2023-06-26T05:43:29;10.32;;;8.38;;
22164;SDS011;11248;52.512;13.520;2023-06-26T05:45:56;10.07;;;8.10;;
22164;SDS011;11248;52.512;13.520;2023-06-26T05:48:25;9.00;;;7.72;;
22164;SDS011;11248;52.512;13.520;2023-06-26T05:50:51;11.38;;;6.93;;
22164;SDS011;11248;52.512;13.520;2023-06-26T05:53:17;8.75;;;7.65;;
22164;SDS011;11248;52.512;13.520;2023-06-26T05:55:43;9.35;;;7.63;;
22164;SDS011;11248;52.512;13.520;2023-06-26T05:58:12;11.25;;;9.00;;
22164;SDS011;11248;52.512;13.520;2023-06-26T06:00:39;9.43;;;7.43;;
22164;SDS011;11248;52.512;13.520;2023-06-26T06:03:05;9.30;;;7.38;;
22164;SDS011;11248;52.512;13.520;2023-06-26T06:05:31;8.77;;;7.10;;
22164;SDS011;11248;52.512;13.520;2023-06-26T06:07:57;7.28;;;6.45;;
22164;SDS011;11248;52.512;13.520;2023-06-26T06:10:23;8.05;;;6.97;;
22164;SDS011;11248;52.512;13.520;2023-06-26T06:12:49;8.00;;;7.18;;
22164;SDS011;11248;52.512;13.520;2023-06-26T06:15:15;9.15;;;7.20;;
22164;SDS011;11248;52.512;13.520;2023-06-26T06:17:41;10.45;;;7.65;;
22164;SDS011;11248;52.512;13.520;2023-06-26T06:20:07;8.60;;;7.40;;
22164;SDS011;11248;52.512;13.520;2023-06-26T06:22:33;8.32;;;7.22;;
22164;SDS011;11248;52.512;13.520;2023-06-26T06:24:59;9.38;;;7.72;;
22164;SDS011;11248;52.512;13.520;2023-06-26T06:27:25;9.52;;;7.13;;
22164;SDS011;11248;52.512;13.520;2023-06-26T06:29:51;8.45;;;7.63;;
22164;SDS011;11248;52.512;13.520;2023-06-26T06:32:17;9.23;;;6.53;;
22164;SDS011;11248;52.512;13.520;2023-06-26T06:34:43;12.30;;;7.32;;
22164;SDS011;11248;52.512;13.520;2023-06-26T06:37:09;8.60;;;6.65;;
22164;SDS011;11248;52.512;13.520;2023-06-26T06:39:35;10.30;;;7.40;;
22164;SDS011;11248;52.512;13.520;2023-06-26T06:42:01;9.70;;;7.63;;
22164;SDS011;11248;52.512;13.520;2023-06-26T06:44:27;7.93;;;5.60;;
22164;SDS011;11248;52.512;13.520;2023-06-26T06:46:53;8.25;;;6.50;;
22164;SDS011;11248;52.512;13.520;2023-06-26T06:49:18;8.68;;;7.32;;
22164;SDS011;11248;52.512;13.520;2023-06-26T06:51:44;9.18;;;7.22;;
22164;SDS011;11248;52.512;13.520;2023-06-26T06:54:10;8.88;;;6.75;;
22164;SDS011;11248;52.512;13.520;2023-06-26T06:56:36;9.00;;;6.10;;
22164;SDS011;11248;52.512;13.520;2023-06-26T06:59:02;7.40;;;5.72;;
22164;SDS011;11248;52.512;13.520;2023-06-26T07:01:28;7.50;;;5.93;;
22164;SDS011;11248;52.512;13.520;2023-06-26T07:03:54;8.10;;;6.45;;
22164;SDS011;11248;52.512;13.520;2023-06-26T07:06:20;9.57;;;6.32;;
22164;SDS011;11248;52.512;13.520;2023-06-26T07:08:46;8.10;;;6.00;;
22164;SDS011;11248;52.512;13.520;2023-06-26T07:11:11;9.32;;;7.65;;
22164;SDS011;11248;52.512;13.520;2023-06-26T07:13:37;8.75;;;6.75;;
22164;SDS011;11248;52.512;13.520;2023-06-26T07:16:03;6.70;;;6.00;;
22164;SDS011;11248;52.512;13.520;2023-06-26T07:18:30;7.55;;;6.07;;
22164;SDS011;11248;52.512;13.520;2023-06-26T07:20:56;5.80;;;5.20;;
22164;SDS011;11248;52.512;13.520;2023-06-26T07:23:22;5.68;;;5.05;;
22164;SDS011;11248;52.512;13.520;2023-06-26T07:25:48;8.13;;;6.43;;
22164;SDS011;11248;52.512;13.520;2023-06-26T07:28:14;7.45;;;5.90;;
22164;SDS011;11248;52.512;13.520;2023-06-26T07:30:40;7.18;;;5.60;;
22164;SDS011;11248;52.512;13.520;2023-06-26T07:33:06;6.55;;;5.20;;
22164;SDS011;11248;52.512;13.520;2023-06-26T07:35:32;7.78;;;5.05;;
22164;SDS011;11248;52.512;13.520;2023-06-26T07:37:58;6.47;;;5.18;;
22164;SDS011;11248;52.512;13.520;2023-06-26T07:40:25;6.47;;;5.10;;
22164;SDS011;11248;52.512;13.520;2023-06-26T07:42:51;6.40;;;4.85;;
22164;SDS011;11248;52.512;13.520;2023-06-26T07:45:18;5.82;;;4.95;;
22164;SDS011;11248;52.512;13.520;2023-06-26T07:47:45;8.48;;;5.10;;
22164;SDS011;11248;52.512;13.520;2023-06-26T07:50:11;6.07;;;5.03;;
22164;SDS011;11248;52.512;13.520;2023-06-26T07:52:37;5.93;;;4.90;;
22164;SDS011;11248;52.512;13.520;2023-06-26T07:55:03;6.93;;;4.13;;
22164;SDS011;11248;52.512;13.520;2023-06-26T07:57:29;7.45;;;4.60;;
22164;SDS011;11248;52.512;13.520;2023-06-26T07:59:57;5.20;;;4.60;;
22164;SDS011;11248;52.512;13.520;2023-06-26T08:02:23;5.80;;;4.90;;
22164;SDS011;11248;52.512;13.520;2023-06-26T08:04:49;5.63;;;4.43;;
22164;SDS011;11248;52.512;13.520;2023-06-26T08:07:15;11.98;;;5.80;;
22164;SDS011;11248;52.512;13.520;2023-06-26T08:09:41;7.13;;;5.13;;
22164;SDS011;11248;52.512;13.520;2023-06-26T08:12:07;5.57;;;4.47;;
22164;SDS011;11248;52.512;13.520;2023-06-26T08:14:33;5.38;;;4.47;;
22164;SDS011;11248;52.512;13.520;2023-06-26T08:16:58;4.93;;;4.18;;
22164;SDS011;11248;52.512;13.520;2023-06-26T08:19:24;5.40;;;4.50;;
22164;SDS011;11248;52.512;13.520;2023-06-26T08:21:50;7.45;;;4.07;;
22164;SDS011;11248;52.512;13.520;2023-06-26T08:24:16;4.78;;;4.07;;
22164;SDS011;11248;52.512;13.520;2023-06-26T08:26:44;4.57;;;4.07;;
22164;SDS011;11248;52.512;13.520;2023-06-26T08:29:10;5.15;;;4.00;;
22164;SDS011;11248;52.512;13.520;2023-06-26T08:31:39;4.63;;;3.97;;
22164;SDS011;11248;52.512;13.520;2023-06-26T08:34:06;4.22;;;3.83;;
22164;SDS011;11248;52.512;13.520;2023-06-26T08:36:32;4.82;;;4.13;;
22164;SDS011;11248;52.512;13.520;2023-06-26T08:38:58;5.13;;;4.32;;
22164;SDS011;11248;52.512;13.520;2023-06-26T08:41:24;5.30;;;4.20;;
22164;SDS011;11248;52.512;13.520;2023-06-26T08:43:50;6.00;;;3.85;;
22164;SDS011;11248;52.512;13.520;2023-06-26T08:46:17;7.05;;;4.38;;
22164;SDS011;11248;52.512;13.520;2023-06-26T08:48:45;5.65;;;3.78;;
22164;SDS011;11248;52.512;13.520;2023-06-26T08:51:15;5.25;;;3.40;;
22164;SDS011;11248;52.512;13.520;2023-06-26T08:54:00;4.03;;;3.60;;
22164;SDS011;11248;52.512;13.520;2023-06-26T08:56:28;3.70;;;3.25;;
22164;SDS011;11248;52.512;13.520;2023-06-26T08:58:54;5.15;;;3.60;;
22164;SDS011;11248;52.512;13.520;2023-06-26T09:01:20;4.88;;;4.20;;
22164;SDS011;11248;52.512;13.520;2023-06-26T09:03:46;5.85;;;4.07;;
22164;SDS011;11248;52.512;13.520;2023-06-26T09:06:12;4.25;;;3.60;;
22164;SDS011;11248;52.512;13.520;2023-06-26T09:08:38;4.32;;;3.55;;
22164;SDS011;11248;52.512;13.520;2023-06-26T09:11:04;4.22;;;3.72;;
22164;SDS011;11248;52.512;13.520;2023-06-26T09:13:30;5.03;;;3.88;;
22164;SDS011;11248;52.512;13.520;2023-06-26T09:15:56;6.13;;;4.18;;
22164;SDS011;11248;52.512;13.520;2023-06-26T09:18:22;3.85;;;3.40;;
22164;SDS011;11248;52.512;13.520;2023-06-26T09:20:48;5.78;;;3.83;;
22164;SDS011;11248;52.512;13.520;2023-06-26T09:23:14;3.75;;;3.33;;
22164;SDS011;11248;52.512;13.520;2023-06-26T09:25:40;5.28;;;3.53;;
22164;SDS011;11248;52.512;13.520;2023-06-26T09:28:08;4.60;;;3.58;;
22164;SDS011;11248;52.512;13.520;2023-06-26T09:30:34;3.78;;;3.40;;
22164;SDS011;11248;52.512;13.520;2023-06-26T09:33:13;5.78;;;3.78;;
22164;SDS011;11248;52.512;13.520;2023-06-26T09:35:40;3.78;;;3.45;;
22164;SDS011;11248;52.512;13.520;2023-06-26T09:38:06;5.70;;;3.88;;
22164;SDS011;11248;52.512;13.520;2023-06-26T09:40:32;3.90;;;3.38;;
22164;SDS011;11248;52.512;13.520;2023-06-26T09:43:04;5.13;;;3.78;;
22164;SDS011;11248;52.512;13.520;2023-06-26T09:45:30;4.80;;;3.60;;
22164;SDS011;11248;52.512;13.520;2023-06-26T09:47:59;5.00;;;3.95;;
22164;SDS011;11248;52.512;13.520;2023-06-26T09:50:25;4.90;;;4.05;;
22164;SDS011;11248;52.512;13.520;2023-06-26T09:52:52;4.85;;;4.10;;
22164;SDS011;11248;52.512;13.520;2023-06-26T09:55:19;5.40;;;4.25;;
22164;SDS011;11248;52.512;13.520;2023-06-26T09:57:49;4.97;;;3.63;;
22164;SDS011;11248;52.512;13.520;2023-06-26T10:00:16;5.18;;;3.78;;
22164;SDS011;11248;52.512;13.520;2023-06-26T10:02:42;3.72;;;3.38;;
22164;SDS011;11248;52.512;13.520;2023-06-26T10:05:08;3.80;;;2.97;;
22164;SDS011;11248;52.512;13.520;2023-06-26T10:07:34;3.40;;;3.10;;
22164;SDS011;11248;52.512;13.520;2023-06-26T10:10:02;4.05;;;3.42;;
22164;SDS011;11248;52.512;13.520;2023-06-26T10:12:29;3.83;;;3.53;;
22164;SDS011;11248;52.512;13.520;2023-06-26T10:14:56;4.25;;;3.13;;
22164;SDS011;11248;52.512;13.520;2023-06-26T10:17:22;5.05;;;3.53;;
22164;SDS011;11248;52.512;13.520;2023-06-26T10:19:50;3.75;;;3.22;;
22164;SDS011;11248;52.512;13.520;2023-06-26T10:22:18;4.43;;;3.40;;
22164;SDS011;11248;52.512;13.520;2023-06-26T10:24:45;4.15;;;3.40;;
22164;SDS011;11248;52.512;13.520;2023-06-26T10:27:20;3.10;;;2.75;;
22164;SDS011;11248;52.512;13.520;2023-06-26T10:29:57;3.75;;;3.35;;
22164;SDS011;11248;52.512;13.520;2023-06-26T10:32:25;3.42;;;2.83;;
22164;SDS011;11248;52.512;13.520;2023-06-26T10:34:52;3.47;;;3.17;;
22164;SDS011;11248;52.512;13.520;2023-06-26T10:37:19;3.30;;;3.00;;
22164;SDS011;11248;52.512;13.520;2023-06-26T10:39:48;5.20;;;3.28;;
22164;SDS011;11248;52.512;13.520;2023-06-26T10:42:15;3.72;;;2.83;;
22164;SDS011;11248;52.512;13.520;2023-06-26T10:44:41;4.53;;;3.28;;
22164;SDS011;11248;52.512;13.520;2023-06-26T10:47:08;3.92;;;3.40;;
22164;SDS011;11248;52.512;13.520;2023-06-26T10:49:35;3.70;;;3.17;;
22164;SDS011;11248;52.512;13.520;2023-06-26T10:52:01;4.32;;;3.20;;
22164;SDS011;11248;52.512;13.520;2023-06-26T10:54:28;4.93;;;3.85;;
22164;SDS011;11248;52.512;13.520;2023-06-26T10:56:55;4.05;;;3.35;;
22164;SDS011;11248;52.512;13.520;2023-06-26T10:59:25;3.60;;;3.13;;
22164;SDS011;11248;52.512;13.520;2023-06-26T11:04:37;4.03;;;3.45;;
22164;SDS011;11248;52.512;13.520;2023-06-26T11:10:29;4.07;;;3.00;;
22164;SDS011;11248;52.512;13.520;2023-06-26T11:12:33;6.97;;;3.05;;
22164;SDS011;11248;52.512;13.520;2023-06-26T11:15:00;3.08;;;2.80;;
22164;SDS011;11248;52.512;13.520;2023-06-26T11:17:26;4.95;;;3.17;;
22164;SDS011;11248;52.512;13.520;2023-06-26T11:19:53;3.42;;;2.83;;
22164;SDS011;11248;52.512;13.520;2023-06-26T11:22:20;3.72;;;3.28;;
22164;SDS011;11248;52.512;13.520;2023-06-26T11:24:49;3.42;;;3.10;;
22164;SDS011;11248;52.512;13.520;2023-06-26T11:27:18;3.75;;;3.35;;
22164;SDS011;11248;52.512;13.520;2023-06-26T11:29:47;3.42;;;3.05;;
22164;SDS011;11248;52.512;13.520;2023-06-26T11:32:14;3.45;;;2.95;;
22164;SDS011;11248;52.512;13.520;2023-06-26T11:34:40;4.43;;;3.15;;
22164;SDS011;11248;52.512;13.520;2023-06-26T11:37:08;4.07;;;3.50;;
22164;SDS011;11248;52.512;13.520;2023-06-26T11:39:34;4.25;;;3.53;;
22164;SDS011;11248;52.512;13.520;2023-06-26T11:42:00;4.68;;;3.67;;
22164;SDS011;11248;52.512;13.520;2023-06-26T11:44:30;4.97;;;3.28;;
22164;SDS011;11248;52.512;13.520;2023-06-26T11:46:56;5.85;;;4.10;;
22164;SDS011;11248;52.512;13.520;2023-06-26T11:49:22;4.25;;;3.40;;
22164;SDS011;11248;52.512;13.520;2023-06-26T11:51:50;3.85;;;3.05;;
22164;SDS011;11248;52.512;13.520;2023-06-26T11:54:22;5.03;;;3.47;;
22164;SDS011;11248;52.512;13.520;2023-06-26T11:56:58;3.55;;;3.10;;
22164;SDS011;11248;52.512;13.520;2023-06-26T11:59:32;5.03;;;3.60;;
22164;SDS011;11248;52.512;13.520;2023-06-26T12:04:24;3.20;;;2.80;;
22164;SDS011;11248;52.512;13.520;2023-06-26T12:06:51;4.68;;;3.60;;
22164;SDS011;11248;52.512;13.520;2023-06-26T12:09:21;4.50;;;3.22;;
22164;SDS011;11248;52.512;13.520;2023-06-26T12:11:48;3.92;;;3.53;;
22164;SDS011;11248;52.512;13.520;2023-06-26T12:14:14;6.65;;;3.70;;
22164;SDS011;11248;52.512;13.520;2023-06-26T12:16:40;4.28;;;3.72;;
22164;SDS011;11248;52.512;13.520;2023-06-26T12:19:06;3.55;;;3.25;;
22164;SDS011;11248;52.512;13.520;2023-06-26T12:24:02;5.45;;;3.47;;
22164;SDS011;11248;52.512;13.520;2023-06-26T12:26:28;3.75;;;3.38;;
22164;SDS011;11248;52.512;13.520;2023-06-26T12:29:01;3.55;;;3.25;;
22164;SDS011;11248;52.512;13.520;2023-06-26T12:31:26;5.07;;;3.47;;
22164;SDS011;11248;52.512;13.520;2023-06-26T12:33:52;4.82;;;3.80;;
22164;SDS011;11248;52.512;13.520;2023-06-26T12:36:18;7.53;;;3.72;;
22164;SDS011;11248;52.512;13.520;2023-06-26T12:38:45;4.88;;;3.88;;
22164;SDS011;11248;52.512;13.520;2023-06-26T12:41:14;3.90;;;3.50;;
22164;SDS011;11248;52.512;13.520;2023-06-26T12:43:40;3.60;;;3.30;;
22164;SDS011;11248;52.512;13.520;2023-06-26T12:46:06;3.80;;;3.50;;
22164;SDS011;11248;52.512;13.520;2023-06-26T12:48:42;4.13;;;3.72;;
22164;SDS011;11248;52.512;13.520;2023-06-26T12:51:16;4.65;;;3.60;;
22164;SDS011;11248;52.512;13.520;2023-06-26T12:53:43;4.30;;;3.90;;
22164;SDS011;11248;52.512;13.520;2023-06-26T12:56:09;4.22;;;3.83;;
22164;SDS011;11248;52.512;13.520;2023-06-26T12:58:36;4.50;;;4.10;;
22164;SDS011;11248;52.512;13.520;2023-06-26T13:01:03;4.40;;;4.00;;
22164;SDS011;11248;52.512;13.520;2023-06-26T13:03:29;4.95;;;3.80;;
22164;SDS011;11248;52.512;13.520;2023-06-26T13:05:55;4.03;;;3.63;;
22164;SDS011;11248;52.512;13.520;2023-06-26T13:08:21;4.07;;;3.67;;
22164;SDS011;11248;52.512;13.520;2023-06-26T13:10:47;10.57;;;4.43;;
22164;SDS011;11248;52.512;13.520;2023-06-26T13:13:13;4.28;;;3.90;;
22164;SDS011;11248;52.512;13.520;2023-06-26T13:15:39;4.78;;;4.38;;
22164;SDS011;11248;52.512;13.520;2023-06-26T13:18:05;4.47;;;4.07;;
22164;SDS011;11248;52.512;13.520;2023-06-26T13:20:31;6.07;;;4.40;;
22164;SDS011;11248;52.512;13.520;2023-06-26T13:22:56;4.43;;;3.78;;
22164;SDS011;11248;52.512;13.520;2023-06-26T13:25:22;5.57;;;4.38;;
22164;SDS011;11248;52.512;13.520;2023-06-26T13:27:48;6.43;;;4.05;;
22164;SDS011;11248;52.512;13.520;2023-06-26T13:30:14;5.97;;;3.88;;
22164;SDS011;11248;52.512;13.520;2023-06-26T13:32:41;4.30;;;3.90;;
22164;SDS011;11248;52.512;13.520;2023-06-26T13:35:07;5.30;;;4.70;;
22164;SDS011;11248;52.512;13.520;2023-06-26T13:37:34;4.70;;;3.90;;
22164;SDS011;11248;52.512;13.520;2023-06-26T13:40:01;6.30;;;4.60;;
22164;SDS011;11248;52.512;13.520;2023-06-26T13:42:27;4.40;;;3.53;;
22164;SDS011;11248;52.512;13.520;2023-06-26T13:44:53;4.70;;;4.20;;
22164;SDS011;11248;52.512;13.520;2023-06-26T13:47:19;5.35;;;3.97;;
22164;SDS011;11248;52.512;13.520;2023-06-26T13:49:46;5.03;;;4.32;;
22164;SDS011;11248;52.512;13.520;2023-06-26T13:52:12;4.07;;;3.67;;
22164;SDS011;11248;52.512;13.520;2023-06-26T13:54:37;5.00;;;4.20;;
22164;SDS011;11248;52.512;13.520;2023-06-26T13:57:05;5.45;;;4.43;;
22164;SDS011;11248;52.512;13.520;2023-06-26T13:59:31;4.68;;;4.18;;
22164;SDS011;11248;52.512;13.520;2023-06-26T14:01:57;8.27;;;4.60;;
22164;SDS011;11248;52.512;13.520;2023-06-26T14:04:24;6.30;;;4.53;;
22164;SDS011;11248;52.512;13.520;2023-06-26T14:06:50;5.82;;;4.57;;
22164;SDS011;11248;52.512;13.520;2023-06-26T14:09:16;6.82;;;4.22;;
22164;SDS011;11248;52.512;13.520;2023-06-26T14:11:42;4.40;;;4.00;;
22164;SDS011;11248;52.512;13.520;2023-06-26T14:14:08;5.18;;;4.60;;
22164;SDS011;11248;52.512;13.520;2023-06-26T14:16:34;4.97;;;3.90;;
22164;SDS011;11248;52.512;13.520;2023-06-26T14:19:00;10.63;;;4.07;;
22164;SDS011;11248;52.512;13.520;2023-06-26T14:21:26;5.20;;;4.40;;
22164;SDS011;11248;52.512;13.520;2023-06-26T14:23:53;7.63;;;4.20;;
22164;SDS011;11248;52.512;13.520;2023-06-26T14:26:18;5.22;;;4.28;;
22164;SDS011;11248;52.512;13.520;2023-06-26T14:28:44;6.03;;;4.43;;
22164;SDS011;11248;52.512;13.520;2023-06-26T14:31:10;7.82;;;4.65;;
22164;SDS011;11248;52.512;13.520;2023-06-26T14:33:36;13.63;;;4.20;;
22164;SDS011;11248;52.512;13.520;2023-06-26T14:36:02;14.30;;;4.50;;
22164;SDS011;11248;52.512;13.520;2023-06-26T14:38:28;16.02;;;4.93;;
22164;SDS011;11248;52.512;13.520;2023-06-26T14:40:54;19.80;;;6.00;;